Time;durP1;ratioP1;P1;durP2;ratioP2;P2;SDS_P1;SDS_P2;PMS_P1;PMS_P2;Temp;Humidity;BMP_temperature;BMP_pressure;BME280_temperature;BME280_humidity;BME280_pressure;Samples;Min_cycle;Max_cycle;Signal;HPM_P1;HPM_P2
2024/04/17 00:01:33;;;;;;;30.35;6.30;;;17.00;67.60;;;;;;5453494;26;19995;-71
2024/04/17 00:03:59;;;;;;;33.78;6.90;;;17.00;66.70;;;;;;5422974;26;19991;-71
2024/04/17 00:06:24;;;;;;;35.33;6.72;;;17.00;66.70;;;;;;5465298;26;19998;-71
2024/04/17 00:08:50;;;;;;;34.83;6.53;;;17.00;66.80;;;;;;5469915;26;19994;-72
2024/04/17 00:11:16;;;;;;;33.88;6.57;;;16.90;66.80;;;;;;5455312;26;20006;-72
2024/04/17 00:13:42;;;;;;;33.53;5.97;;;16.90;66.70;;;;;;5454297;26;20010;-71
2024/04/17 00:16:07;;;;;;;31.95;7.25;;;16.90;66.70;;;;;;5421797;26;20454;-72
2024/04/17 00:18:33;;;;;;;31.33;7.03;;;16.80;66.70;;;;;;5453517;26;20453;-72
2024/04/17 00:20:59;;;;;;;30.73;7.60;;;16.90;66.80;;;;;;5453362;26;19999;-72
2024/04/17 00:23:25;;;;;;;31.75;5.72;;;16.80;66.70;;;;;;5453145;26;19999;-71
2024/04/17 00:25:54;;;;;;;48.75;7.82;;;16.80;66.70;;;;;;5453054;26;19994;-72
2024/04/17 00:28:20;;;;;;;28.35;6.25;;;16.80;67.30;;;;;;5421872;26;20413;-72
2024/04/17 00:30:48;;;;;;;45.88;6.57;;;16.80;66.80;;;;;;5421315;26;20045;-71
2024/04/17 00:33:14;;;;;;;31.85;6.15;;;16.80;67.00;;;;;;5452833;26;19999;-72
2024/04/17 00:35:40;;;;;;;35.80;7.28;;;16.80;67.10;;;;;;5452913;26;20109;-72
2024/04/17 00:38:05;;;;;;;34.55;6.97;;;16.80;67.30;;;;;;5453288;26;20005;-73
2024/04/17 00:40:35;;;;;;;35.38;7.07;;;16.70;67.30;;;;;;5452786;26;20013;-73
2024/04/17 00:43:01;;;;;;;30.55;5.88;;;16.70;67.40;;;;;;5420933;26;19995;-73
2024/04/17 00:45:44;;;;;;;28.48;5.88;;;16.70;67.60;;;;;;5452430;26;19995;-72
2024/04/17 00:48:12;;;;;;;34.47;6.70;;;16.60;67.30;;;;;;5453186;26;20006;-72
2024/04/17 00:50:40;;;;;;;32.90;7.25;;;16.60;67.40;;;;;;5452901;26;20446;-72
2024/04/17 00:53:08;;;;;;;29.67;6.70;;;16.60;67.60;;;;;;5420829;26;20008;-71
2024/04/17 00:55:37;;;;;;;32.97;6.68;;;16.60;67.40;;;;;;5452575;26;20052;-72
2024/04/17 00:58:04;;;;;;;28.63;6.00;;;16.60;67.50;;;;;;5452447;26;20011;-73
2024/04/17 01:00:30;;;;;;;33.05;6.07;;;16.60;67.50;;;;;;5420424;26;19995;-71
2024/04/17 01:02:56;;;;;;;28.10;6.43;;;16.60;67.50;;;;;;5452475;26;20108;-72
2024/04/17 01:05:22;;;;;;;37.25;7.28;;;16.60;67.80;;;;;;5452468;26;20048;-72
2024/04/17 01:07:47;;;;;;;33.38;7.10;;;16.50;67.60;;;;;;5452415;26;19995;-71
2024/04/17 01:10:14;;;;;;;32.13;6.80;;;16.50;67.80;;;;;;5452684;26;19995;-71
2024/04/17 01:12:40;;;;;;;38.70;7.03;;;16.40;68.00;;;;;;5452706;26;19998;-73
2024/04/17 01:15:10;;;;;;;36.45;7.38;;;16.40;68.50;;;;;;5431605;26;20474;-71
2024/04/17 01:17:37;;;;;;;34.13;7.15;;;16.40;68.60;;;;;;5415729;26;20327;-71
2024/04/17 01:20:04;;;;;;;42.97;7.70;;;16.40;68.40;;;;;;5440438;26;20441;-71
2024/04/17 01:22:29;;;;;;;33.55;6.50;;;16.40;68.70;;;;;;5451522;26;20068;-71
2024/04/17 01:24:55;;;;;;;39.75;7.50;;;16.30;68.50;;;;;;5452391;26;20014;-73
2024/04/17 01:27:21;;;;;;;34.33;6.93;;;16.30;68.70;;;;;;5452550;26;20005;-72
2024/04/17 01:29:46;;;;;;;31.88;6.10;;;16.20;69.00;;;;;;5451958;26;19998;-70
2024/04/17 01:32:12;;;;;;;28.85;7.15;;;16.20;69.30;;;;;;5452360;26;19994;-72
2024/04/17 01:34:38;;;;;;;35.25;6.68;;;16.20;69.40;;;;;;5452307;26;20291;-72
2024/04/17 01:37:03;;;;;;;34.25;7.00;;;16.10;69.20;;;;;;5452294;26;20005;-73
2024/04/17 01:39:29;;;;;;;35.00;6.20;;;16.10;69.50;;;;;;5452274;26;20002;-71
2024/04/17 01:41:55;;;;;;;38.88;7.07;;;16.10;69.70;;;;;;5452056;26;20032;-73
2024/04/17 01:44:22;;;;;;;36.47;7.25;;;16.00;69.80;;;;;;5452037;26;20005;-73
2024/04/17 01:46:48;;;;;;;32.15;7.22;;;16.00;69.70;;;;;;5453913;26;19990;-72
2024/04/17 01:49:13;;;;;;;30.90;6.75;;;15.90;69.80;;;;;;5420984;26;20085;-71
2024/04/17 01:51:39;;;;;;;37.70;7.72;;;15.90;70.00;;;;;;5451603;26;20009;-72
2024/04/17 01:54:05;;;;;;;33.13;6.97;;;16.00;70.00;;;;;;5452038;26;20026;-71
2024/04/17 01:56:30;;;;;;;35.40;7.55;;;15.90;69.90;;;;;;5451754;26;19990;-72
2024/04/17 01:58:56;;;;;;;38.70;7.10;;;15.90;70.00;;;;;;5451783;26;19991;-72
2024/04/17 02:01:22;;;;;;;35.10;6.10;;;15.90;70.20;;;;;;5452184;26;20060;-72
2024/04/17 02:03:48;;;;;;;32.13;6.40;;;15.90;70.20;;;;;;5451953;26;19995;-72
2024/04/17 02:06:15;;;;;;;29.85;6.30;;;15.90;70.00;;;;;;5451670;26;20019;-71
2024/04/17 02:08:41;;;;;;;32.80;5.88;;;15.90;69.90;;;;;;5451592;26;19994;-73
2024/04/17 02:11:07;;;;;;;25.05;6.15;;;15.90;70.00;;;;;;5419819;26;20337;-73
2024/04/17 02:13:33;;;;;;;32.05;6.13;;;15.80;70.00;;;;;;5451596;26;19995;-73
2024/04/17 02:16:03;;;;;;;33.42;6.78;;;15.80;70.10;;;;;;5451422;26;20006;-72
2024/04/17 02:18:28;;;;;;;27.35;5.65;;;15.70;70.10;;;;;;5452159;26;20007;-72
2024/04/17 02:20:54;;;;;;;28.50;6.07;;;15.70;70.30;;;;;;5457421;26;19998;-71
2024/04/17 02:23:20;;;;;;;29.42;6.50;;;15.80;70.30;;;;;;5457586;26;19998;-72
2024/04/17 02:25:45;;;;;;;27.10;5.93;;;15.80;70.30;;;;;;5451546;26;19999;-72
2024/04/17 02:28:11;;;;;;;28.45;6.07;;;15.90;69.90;;;;;;5450860;26;20010;-71
2024/04/17 02:30:37;;;;;;;25.60;5.32;;;15.90;69.90;;;;;;5419404;26;19991;-72
2024/04/17 02:33:03;;;;;;;28.17;5.57;;;15.90;69.80;;;;;;5419650;26;19995;-72
2024/04/17 02:35:28;;;;;;;32.85;6.47;;;16.00;69.60;;;;;;5450768;26;20463;-71
2024/04/17 02:37:54;;;;;;;29.65;5.85;;;15.90;69.60;;;;;;5451966;26;20009;-71
2024/04/17 02:40:20;;;;;;;27.17;5.65;;;16.00;69.60;;;;;;5451593;26;20362;-72
2024/04/17 02:42:46;;;;;;;30.13;5.75;;;16.00;69.30;;;;;;5450803;26;20437;-71
2024/04/17 02:45:11;;;;;;;30.52;4.90;;;16.00;69.00;;;;;;5450954;26;19999;-72
2024/04/17 02:47:37;;;;;;;32.92;6.25;;;16.00;68.80;;;;;;5419181;26;20376;-70
2024/04/17 02:50:03;;;;;;;26.10;5.68;;;16.00;68.90;;;;;;5450547;26;19994;-71
2024/04/17 02:52:29;;;;;;;24.35;5.70;;;16.10;68.80;;;;;;5418558;26;20010;-71
2024/04/17 02:54:54;;;;;;;18.92;4.47;;;16.00;68.70;;;;;;5451520;26;19995;-72
2024/04/17 02:57:20;;;;;;;25.83;4.82;;;16.00;68.70;;;;;;5450716;26;20461;-71
2024/04/17 02:59:45;;;;;;;28.00;5.28;;;16.00;68.60;;;;;;5452187;26;19994;-71
2024/04/17 03:02:11;;;;;;;34.15;5.05;;;16.00;68.60;;;;;;5454236;26;20455;-72
2024/04/17 03:04:37;;;;;;;26.73;6.05;;;16.00;68.70;;;;;;5454148;26;20003;-71
2024/04/17 03:07:02;;;;;;;30.75;6.20;;;16.00;68.90;;;;;;5454055;26;20063;-73
2024/04/17 03:09:28;;;;;;;20.73;4.95;;;16.00;68.90;;;;;;5453951;26;20021;-71
2024/04/17 03:11:54;;;;;;;25.08;4.65;;;16.00;69.10;;;;;;5453826;26;20102;-70
2024/04/17 03:14:19;;;;;;;25.95;5.60;;;16.00;69.20;;;;;;5453938;26;20014;-71
2024/04/17 03:16:48;;;;;;;24.45;4.78;;;15.90;69.60;;;;;;5454193;26;20144;-73
2024/04/17 03:19:14;;;;;;;22.98;5.68;;;15.90;69.70;;;;;;5453903;26;20007;-72
2024/04/17 03:21:39;;;;;;;26.60;5.75;;;15.90;69.80;;;;;;5454258;26;19999;-71
2024/04/17 03:24:05;;;;;;;25.77;5.88;;;15.80;69.90;;;;;;5454325;26;20026;-71
2024/04/17 03:26:31;;;;;;;24.02;6.07;;;15.70;70.40;;;;;;5453987;26;20062;-72
2024/04/17 03:28:57;;;;;;;26.05;5.97;;;15.60;70.40;;;;;;5454057;26;20003;-72
2024/04/17 03:31:23;;;;;;;38.17;6.70;;;15.50;70.50;;;;;;5422385;26;20010;-72
2024/04/17 03:33:48;;;;;;;24.35;5.20;;;15.50;71.30;;;;;;5455256;26;19998;-72
2024/04/17 03:36:14;;;;;;;29.45;5.80;;;15.40;71.30;;;;;;5453717;26;20052;-72
2024/04/17 03:38:40;;;;;;;22.95;5.30;;;15.30;71.50;;;;;;5453917;26;20355;-72
2024/04/17 03:41:05;;;;;;;24.48;5.47;;;15.30;71.60;;;;;;5454039;26;20006;-72
2024/04/17 03:43:31;;;;;;;30.00;5.63;;;15.30;71.50;;;;;;5421345;26;20006;-71
2024/04/17 03:45:57;;;;;;;23.15;5.75;;;15.40;71.70;;;;;;5453531;26;20453;-73
2024/04/17 03:48:22;;;;;;;21.35;5.22;;;15.50;71.60;;;;;;5453497;26;20400;-72
2024/04/17 03:50:48;;;;;;;27.65;5.20;;;15.50;71.60;;;;;;5454121;26;20009;-72
2024/04/17 03:53:14;;;;;;;26.60;5.43;;;15.50;71.60;;;;;;5421843;26;20002;-72
2024/04/17 03:55:39;;;;;;;27.77;5.30;;;15.40;71.60;;;;;;5453855;26;20027;-72
2024/04/17 03:58:05;;;;;;;32.40;5.45;;;15.40;71.90;;;;;;5453821;26;19998;-72
2024/04/17 04:00:31;;;;;;;28.48;5.63;;;15.40;71.90;;;;;;5453408;26;20047;-73
2024/04/17 04:02:56;;;;;;;31.40;5.55;;;15.30;71.90;;;;;;5453852;26;20019;-74
2024/04/17 04:05:22;;;;;;;33.10;5.97;;;15.30;72.10;;;;;;5454105;26;19995;-72
2024/04/17 04:07:48;;;;;;;26.25;5.63;;;15.20;72.20;;;;;;5453586;26;19999;-73
2024/04/17 04:10:13;;;;;;;28.35;5.15;;;15.20;72.40;;;;;;5453271;26;20342;-72
2024/04/17 04:12:39;;;;;;;23.67;6.28;;;15.20;72.80;;;;;;5452757;26;20307;-72
2024/04/17 04:15:05;;;;;;;27.38;5.43;;;15.20;72.40;;;;;;5453197;26;19995;-72
2024/04/17 04:17:30;;;;;;;25.95;5.55;;;15.20;72.50;;;;;;5453267;26;20174;-71
2024/04/17 04:19:56;;;;;;;30.80;5.63;;;15.30;72.50;;;;;;5453409;26;20075;-73
2024/04/17 04:22:22;;;;;;;36.28;6.70;;;15.30;72.40;;;;;;5453452;26;20355;-72
2024/04/17 04:24:47;;;;;;;28.60;6.05;;;15.30;72.40;;;;;;5453557;26;20067;-72
2024/04/17 04:27:13;;;;;;;25.33;6.00;;;15.30;72.40;;;;;;5421418;26;20001;-72
2024/04/17 04:29:39;;;;;;;33.70;6.35;;;15.30;72.20;;;;;;5453686;26;19995;-71
2024/04/17 04:32:04;;;;;;;27.05;6.45;;;15.20;72.40;;;;;;5458331;26;19995;-72
2024/04/17 04:34:30;;;;;;;27.58;6.13;;;15.10;72.40;;;;;;5468926;26;20051;-72
2024/04/17 04:36:56;;;;;;;27.08;6.95;;;15.10;72.50;;;;;;5467664;26;20044;-73
2024/04/17 04:39:21;;;;;;;25.23;5.22;;;15.00;72.60;;;;;;5455357;26;20007;-73
2024/04/17 04:41:47;;;;;;;38.28;6.78;;;14.90;72.90;;;;;;5453464;26;20010;-73
2024/04/17 04:44:13;;;;;;;26.17;5.40;;;15.00;73.20;;;;;;5453462;26;20434;-72
2024/04/17 04:46:38;;;;;;;27.52;5.32;;;14.90;73.20;;;;;;5452660;26;20285;-72
2024/04/17 04:49:04;;;;;;;25.25;5.60;;;14.90;73.40;;;;;;5452986;26;20466;-73
2024/04/17 04:51:30;;;;;;;33.67;6.03;;;14.80;73.30;;;;;;5452719;26;19999;-72
2024/04/17 04:53:55;;;;;;;26.35;5.90;;;14.80;73.60;;;;;;5452833;26;20035;-72
2024/04/17 04:56:21;;;;;;;29.33;5.55;;;14.80;73.60;;;;;;5452775;26;19994;-72
2024/04/17 04:58:47;;;;;;;26.48;5.90;;;14.80;73.80;;;;;;5452706;26;20002;-73
2024/04/17 05:01:13;;;;;;;24.90;4.85;;;14.80;73.60;;;;;;5452788;26;20408;-72
2024/04/17 05:03:39;;;;;;;24.08;5.95;;;14.90;73.80;;;;;;5453164;26;20032;-73
2024/04/17 05:06:04;;;;;;;32.38;5.82;;;14.90;73.70;;;;;;5452682;26;20458;-72
2024/04/17 05:08:31;;;;;;;31.08;5.95;;;14.90;74.50;;;;;;5420950;26;20047;-72
2024/04/17 05:10:56;;;;;;;32.05;6.38;;;15.00;73.80;;;;;;5452667;26;20326;-73
2024/04/17 05:13:22;;;;;;;31.70;5.93;;;15.00;73.60;;;;;;5452933;26;20002;-71
2024/04/17 05:15:48;;;;;;;24.63;5.38;;;15.00;73.60;;;;;;5453067;26;19995;-73
2024/04/17 05:18:13;;;;;;;27.83;6.25;;;15.00;73.50;;;;;;5452733;26;20063;-73
2024/04/17 05:20:39;;;;;;;26.00;5.95;;;15.10;73.60;;;;;;5452447;26;20000;-72
2024/04/17 05:23:05;;;;;;;26.60;6.00;;;15.30;73.50;;;;;;5450869;26;20005;-73
2024/04/17 05:25:30;;;;;;;30.73;6.82;;;15.50;73.20;;;;;;5452122;26;20006;-72
2024/04/17 05:27:56;;;;;;;26.27;5.47;;;15.60;72.60;;;;;;5452417;26;20006;-72
2024/04/17 05:30:22;;;;;;;27.95;5.63;;;15.80;72.30;;;;;;5452375;26;20010;-73
2024/04/17 05:32:47;;;;;;;19.88;5.35;;;15.80;72.10;;;;;;5451784;26;19999;-72
2024/04/17 05:35:13;;;;;;;25.08;5.22;;;15.90;71.90;;;;;;5451560;26;20010;-73
2024/04/17 05:37:39;;;;;;;29.17;5.63;;;15.90;71.80;;;;;;5419933;26;20436;-72
2024/04/17 05:40:06;;;;;;;25.17;5.78;;;15.90;71.60;;;;;;5452013;26;20010;-72
2024/04/17 05:42:32;;;;;;;32.65;5.93;;;15.80;71.50;;;;;;5452098;26;20010;-73
2024/04/17 05:44:57;;;;;;;26.80;5.05;;;15.90;71.60;;;;;;5451574;26;19999;-73
2024/04/17 05:47:24;;;;;;;29.02;5.65;;;16.00;71.30;;;;;;5452618;26;19999;-72
2024/04/17 05:49:49;;;;;;;26.95;5.80;;;16.20;70.90;;;;;;5451793;26;20011;-73
2024/04/17 05:52:16;;;;;;;28.20;5.93;;;16.70;69.90;;;;;;5452020;26;20547;-72
2024/04/17 05:54:42;;;;;;;24.85;6.38;;;17.50;68.50;;;;;;5452004;26;20047;-73
2024/04/17 05:57:08;;;;;;;29.88;5.85;;;18.30;66.70;;;;;;5419865;26;20434;-72
2024/04/17 05:59:35;;;;;;;21.17;5.28;;;19.00;65.10;;;;;;5451921;26;20361;-72
2024/04/17 06:02:01;;;;;;;24.23;5.90;;;19.50;63.80;;;;;;5451846;26;20023;-73
2024/04/17 06:04:26;;;;;;;27.58;5.45;;;19.80;62.80;;;;;;5451770;26;20443;-73
2024/04/17 06:06:52;;;;;;;26.48;5.30;;;20.00;62.40;;;;;;5451509;26;20061;-73
2024/04/17 06:09:18;;;;;;;25.20;5.47;;;20.40;61.50;;;;;;5451877;26;20006;-73
2024/04/17 06:11:43;;;;;;;21.85;5.22;;;20.90;60.00;;;;;;5452096;26;19999;-73
2024/04/17 06:14:09;;;;;;;26.83;5.35;;;21.00;58.80;;;;;;5452048;26;20007;-73
2024/04/17 06:16:35;;;;;;;23.75;5.97;;;21.10;58.70;;;;;;5452154;26;20419;-73
2024/04/17 06:19:00;;;;;;;20.40;5.70;;;21.40;57.90;;;;;;5451692;26;19995;-71
2024/04/17 06:21:29;;;;;;;26.75;5.65;;;21.60;57.60;;;;;;5451782;26;20011;-73
2024/04/17 06:23:55;;;;;;;19.65;5.03;;;22.00;56.90;;;;;;5451761;26;20001;-73
2024/04/17 06:26:21;;;;;;;21.05;5.43;;;22.50;56.50;;;;;;5451916;26;20307;-73
2024/04/17 06:28:46;;;;;;;20.85;5.53;;;22.70;55.70;;;;;;5451982;26;20071;-72
2024/04/17 06:31:12;;;;;;;26.45;5.07;;;23.40;55.20;;;;;;5451282;26;20026;-73
2024/04/17 06:33:38;;;;;;;19.13;5.07;;;23.60;54.20;;;;;;5451563;26;19999;-72
2024/04/17 06:36:05;;;;;;;22.02;5.57;;;23.70;54.00;;;;;;5423100;26;20006;-73
2024/04/17 06:38:30;;;;;;;20.02;5.47;;;24.00;53.70;;;;;;5455534;26;20075;-73
2024/04/17 06:40:56;;;;;;;26.58;5.47;;;23.90;53.30;;;;;;5455190;26;20399;-73
2024/04/17 06:43:23;;;;;;;24.63;5.75;;;24.00;53.20;;;;;;5455112;26;20454;-73
2024/04/17 06:45:48;;;;;;;21.67;5.05;;;24.10;52.90;;;;;;5461096;26;19994;-73
2024/04/17 06:48:14;;;;;;;21.33;5.35;;;24.00;52.80;;;;;;5443150;26;20005;-73
2024/04/17 06:50:40;;;;;;;20.08;5.03;;;24.00;52.70;;;;;;5462650;26;20002;-72
2024/04/17 06:53:07;;;;;;;24.67;5.43;;;24.50;52.60;;;;;;5455794;26;20000;-73
2024/04/17 06:55:32;;;;;;;17.10;4.70;;;24.90;51.70;;;;;;5455290;26;20010;-72
2024/04/17 06:57:58;;;;;;;14.38;4.07;;;25.10;51.10;;;;;;5455561;26;20113;-73
2024/04/17 07:00:32;;;;;;;18.90;4.43;;;25.30;50.70;;;;;;5454705;26;19995;-74
2024/04/17 07:02:58;;;;;;;17.23;4.55;;;25.30;50.40;;;;;;5422810;26;20346;-75
2024/04/17 07:05:23;;;;;;;21.10;5.60;;;25.20;50.40;;;;;;5423032;26;19995;-75
2024/04/17 07:07:49;;;;;;;16.98;4.65;;;25.20;50.10;;;;;;5454693;26;19999;-74
2024/04/17 07:10:15;;;;;;;18.90;4.28;;;25.40;50.00;;;;;;5454653;26;20011;-72
2024/04/17 07:12:41;;;;;;;19.55;4.40;;;25.50;49.90;;;;;;5454361;26;19995;-73
2024/04/17 07:15:07;;;;;;;14.38;4.43;;;25.50;49.80;;;;;;5454516;26;19998;-74
2024/04/17 07:17:33;;;;;;;15.48;4.25;;;25.30;50.10;;;;;;5454431;26;20005;-74
2024/04/17 07:19:58;;;;;;;17.63;4.25;;;25.10;49.80;;;;;;5454665;26;20007;-75
2024/04/17 07:22:24;;;;;;;15.48;4.07;;;25.20;49.40;;;;;;5454892;26;20369;-74
2024/04/17 07:24:50;;;;;;;14.68;4.10;;;25.10;49.40;;;;;;5423042;26;20335;-74
2024/04/17 07:27:16;;;;;;;20.98;4.78;;;25.20;48.80;;;;;;5454518;26;19995;-75
2024/04/17 07:29:41;;;;;;;18.33;4.05;;;24.00;49.80;;;;;;5454837;26;19994;-75
2024/04/17 07:32:07;;;;;;;18.00;4.43;;;22.90;51.00;;;;;;5454333;26;20331;-78
2024/04/17 07:34:33;;;;;;;14.82;4.30;;;22.10;52.20;;;;;;5455205;26;20338;-74
2024/04/17 07:36:58;;;;;;;17.45;4.15;;;21.60;53.70;;;;;;5454792;26;20067;-75
2024/04/17 07:39:24;;;;;;;16.50;4.60;;;21.10;53.80;;;;;;5454581;26;20010;-79
2024/04/17 07:41:50;;;;;;;17.52;5.00;;;20.90;54.50;;;;;;5446021;26;20727;-73
2024/04/17 07:44:16;;;;;;;22.33;4.20;;;20.80;55.30;;;;;;5451054;26;20014;-74
2024/04/17 07:46:42;;;;;;;13.95;3.83;;;20.80;55.30;;;;;;5452406;26;19995;-74
2024/04/17 07:49:08;;;;;;;15.27;4.03;;;20.50;55.50;;;;;;5453373;26;20392;-75
2024/04/17 07:51:34;;;;;;;16.30;3.97;;;20.40;55.50;;;;;;5453157;26;20006;-73
2024/04/17 07:54:00;;;;;;;17.10;5.15;;;20.40;55.60;;;;;;5453920;26;20007;-75
2024/04/17 07:56:26;;;;;;;18.23;4.03;;;20.60;55.80;;;;;;5421519;26;20006;-73
2024/04/17 07:58:51;;;;;;;12.95;3.60;;;20.60;55.60;;;;;;5453909;26;20031;-73
2024/04/17 08:01:18;;;;;;;17.23;3.47;;;20.40;55.50;;;;;;5453752;26;20010;-74
2024/04/17 08:03:44;;;;;;;12.27;3.40;;;20.30;55.60;;;;;;5452878;26;20042;-71
2024/04/17 08:06:10;;;;;;;11.13;2.70;;;20.00;55.80;;;;;;5452902;26;20515;-71
2024/04/17 08:08:36;;;;;;;10.20;2.80;;;20.10;55.40;;;;;;5453361;26;20006;-72
2024/04/17 08:11:02;;;;;;;10.57;2.90;;;20.00;55.50;;;;;;5453201;26;20067;-71
2024/04/17 08:13:27;;;;;;;10.25;3.22;;;20.20;55.40;;;;;;5453079;26;20016;-70
2024/04/17 08:15:53;;;;;;;8.57;2.72;;;20.30;55.50;;;;;;5421383;26;20006;-72
2024/04/17 08:18:20;;;;;;;10.63;2.63;;;20.30;55.10;;;;;;5453726;26;20394;-71
2024/04/17 08:20:46;;;;;;;9.93;2.92;;;20.20;55.30;;;;;;5453476;26;20010;-71
2024/04/17 08:23:12;;;;;;;8.25;2.50;;;20.40;55.60;;;;;;5452868;26;20006;-71
2024/04/17 08:25:40;;;;;;;13.40;2.65;;;20.50;55.00;;;;;;5452488;26;20003;-72
2024/04/17 08:28:05;;;;;;;9.68;2.45;;;20.50;54.90;;;;;;5453497;26;20034;-71
2024/04/17 08:30:31;;;;;;;10.80;2.58;;;20.40;54.80;;;;;;5453262;26;20435;-72
2024/04/17 08:32:56;;;;;;;9.25;2.65;;;20.60;55.10;;;;;;5453565;26;20450;-71
2024/04/17 08:35:22;;;;;;;8.80;2.25;;;20.50;54.80;;;;;;5453737;26;19999;-72
2024/04/17 08:37:48;;;;;;;8.48;2.60;;;20.70;54.90;;;;;;5453842;26;20072;-71
2024/04/17 08:40:14;;;;;;;11.00;2.60;;;20.70;54.50;;;;;;5453175;26;20454;-72
2024/04/17 08:42:41;;;;;;;10.50;2.75;;;20.50;54.50;;;;;;5453995;26;20005;-72
2024/04/17 08:45:09;;;;;;;10.45;2.50;;;20.50;54.50;;;;;;5453233;26;20007;-73
2024/04/17 08:47:37;;;;;;;10.90;2.53;;;20.50;54.40;;;;;;5453745;26;19995;-73
2024/04/17 08:50:04;;;;;;;8.00;2.17;;;20.50;54.20;;;;;;5453630;26;20009;-70
2024/04/17 08:52:32;;;;;;;9.18;2.80;;;20.40;54.10;;;;;;5453662;26;20025;-72
2024/04/17 08:54:58;;;;;;;9.05;2.63;;;20.50;54.10;;;;;;5453994;26;20043;-72
2024/04/17 08:57:24;;;;;;;9.32;2.63;;;20.60;53.80;;;;;;5463184;26;19995;-72
2024/04/17 08:59:50;;;;;;;7.38;2.50;;;20.70;53.90;;;;;;5459583;26;20374;-73
2024/04/17 09:02:16;;;;;;;10.75;2.45;;;20.70;53.90;;;;;;5454166;26;20068;-72
2024/04/17 09:04:46;;;;;;;8.73;2.22;;;20.70;53.40;;;;;;5453033;26;20005;-72
2024/04/17 09:07:12;;;;;;;8.05;2.00;;;20.60;53.40;;;;;;5452907;26;20068;-72
2024/04/17 09:09:39;;;;;;;11.27;2.25;;;20.50;53.20;;;;;;5452971;26;20459;-72
2024/04/17 09:12:06;;;;;;;8.70;2.15;;;20.30;53.20;;;;;;5452939;26;19994;-73
2024/04/17 09:14:32;;;;;;;8.20;2.08;;;20.30;53.50;;;;;;5452713;26;19998;-72
2024/04/17 09:16:59;;;;;;;8.23;1.63;;;20.20;53.30;;;;;;5452825;26;20010;-73
2024/04/17 09:19:24;;;;;;;5.55;1.60;;;20.10;52.20;;;;;;5452811;26;20346;-72
2024/04/17 09:21:51;;;;;;;8.43;2.00;;;20.10;52.00;;;;;;5421192;26;20002;-72
2024/04/17 09:24:17;;;;;;;8.38;1.75;;;20.00;51.00;;;;;;5452947;26;19998;-73
2024/04/17 09:26:43;;;;;;;6.70;1.63;;;20.00;51.60;;;;;;5452568;26;20006;-74
2024/04/17 09:29:09;;;;;;;6.72;1.90;;;20.00;50.70;;;;;;5421048;26;20005;-73
2024/04/17 09:31:35;;;;;;;7.18;1.80;;;20.10;51.30;;;;;;5453012;26;19998;-73
2024/04/17 09:34:01;;;;;;;5.75;1.50;;;20.00;51.80;;;;;;5452741;26;20072;-73
2024/04/17 09:36:27;;;;;;;6.28;1.90;;;19.90;52.10;;;;;;5453172;26;20072;-72
2024/04/17 09:38:53;;;;;;;6.47;2.10;;;19.90;52.30;;;;;;5452714;26;20033;-72
2024/04/17 09:41:20;;;;;;;5.65;1.92;;;19.90;52.60;;;;;;5452886;26;20373;-73
2024/04/17 09:43:49;;;;;;;8.20;1.80;;;20.00;52.70;;;;;;5452428;26;19995;-72
2024/04/17 09:46:15;;;;;;;5.82;1.55;;;20.10;52.10;;;;;;5452613;26;19995;-78
2024/04/17 09:48:41;;;;;;;5.20;1.58;;;20.20;51.60;;;;;;5452553;26;19995;-81
2024/04/17 09:51:10;;;;;;;5.78;1.52;;;20.10;50.30;;;;;;5420494;26;20010;-80
2024/04/17 09:53:37;;;;;;;5.95;2.00;;;19.90;49.50;;;;;;5452577;26;20370;-80
2024/04/17 09:56:04;;;;;;;7.00;1.92;;;19.90;50.00;;;;;;5452428;26;20442;-79
2024/04/17 09:58:34;;;;;;;5.13;1.48;;;19.90;49.40;;;;;;5453398;26;20009;-79
2024/04/17 10:01:05;;;;;;;8.05;2.13;;;20.00;49.50;;;;;;5452916;26;20025;-79
2024/04/17 10:03:32;;;;;;;12.95;2.03;;;20.10;50.10;;;;;;5453588;26;20027;-83
2024/04/17 10:06:01;;;;;;;7.75;2.00;;;20.10;50.00;;;;;;5452414;26;20010;-82
2024/04/17 10:08:32;;;;;;;7.70;2.13;;;20.00;50.00;;;;;;5451774;26;20006;-81
2024/04/17 10:10:58;;;;;;;7.55;2.00;;;20.10;50.00;;;;;;5420306;26;19995;-81
2024/04/17 10:13:24;;;;;;;10.10;2.05;;;20.10;50.10;;;;;;5452520;26;20071;-81
2024/04/17 10:15:51;;;;;;;8.65;2.25;;;20.20;49.50;;;;;;5452460;26;20007;-81
2024/04/17 10:18:17;;;;;;;6.32;2.10;;;20.20;49.50;;;;;;5452408;26;20006;-79
2024/04/17 10:20:42;;;;;;;9.13;2.67;;;20.20;49.50;;;;;;5451430;26;20362;-77
2024/04/17 10:23:09;;;;;;;7.43;2.30;;;20.20;49.60;;;;;;5420347;26;20007;-82
2024/04/17 10:25:50;;;;;;;6.60;2.28;;;20.40;50.00;;;;;;5452565;26;19995;-82
2024/04/17 10:28:18;;;;;;;11.75;3.42;;;20.60;49.90;;;;;;5453267;26;20167;-80
2024/04/17 10:30:44;;;;;;;7.95;2.20;;;20.70;49.40;;;;;;5453886;26;20479;-80
2024/04/17 10:33:36;;;;;;;6.35;2.30;;;20.80;48.90;;;;;;5452857;26;20122;-82
2024/04/17 10:36:04;;;;;;;7.60;2.25;;;20.90;49.00;;;;;;5447497;26;20060;-77
2024/04/17 10:38:31;;;;;;;6.78;2.13;;;21.00;47.90;;;;;;5452192;26;20037;-82
2024/04/17 10:40:58;;;;;;;5.78;1.63;;;21.00;47.60;;;;;;5451824;26;20392;-73
2024/04/17 10:43:24;;;;;;;5.60;1.48;;;21.00;46.70;;;;;;5451878;26;19995;-79
2024/04/17 10:46:05;;;;;;;6.22;1.65;;;21.00;45.30;;;;;;5451814;26;19994;-76
2024/04/17 10:48:42;;;;;;;6.95;1.70;;;21.00;42.90;;;;;;5451489;26;20003;-75
2024/04/17 10:51:09;;;;;;;7.68;2.30;;;21.00;42.60;;;;;;5451482;26;20011;-80
2024/04/17 10:53:36;;;;;;;4.00;1.40;;;21.10;43.50;;;;;;5451463;26;19999;-77
2024/04/17 10:56:03;;;;;;;3.65;1.35;;;21.30;43.40;;;;;;5451252;26;20009;-78
2024/04/17 10:58:30;;;;;;;7.85;2.17;;;21.20;42.60;;;;;;5450929;26;20459;-74
2024/04/17 11:01:01;;;;;;;4.97;1.85;;;21.00;43.00;;;;;;5451296;26;20067;-78
2024/04/17 11:03:26;;;;;;;6.05;1.50;;;21.00;43.20;;;;;;5419825;26;20005;-76
2024/04/17 11:05:53;;;;;;;8.65;2.15;;;20.90;43.40;;;;;;5451455;26;19998;-75
2024/04/17 11:08:19;;;;;;;5.38;1.92;;;20.80;44.20;;;;;;5452347;26;20380;-79
2024/04/17 11:10:46;;;;;;;5.95;2.03;;;20.90;44.20;;;;;;5455288;26;20010;-74
2024/04/17 11:13:18;;;;;;;4.38;1.52;;;21.00;44.90;;;;;;5458459;26;19999;-74
2024/04/17 11:15:44;;;;;;;7.72;2.00;;;20.80;44.10;;;;;;5416848;26;20078;-74
2024/04/17 11:18:11;;;;;;;6.63;2.45;;;20.90;45.20;;;;;;5383453;26;20002;-73
2024/04/17 11:20:38;;;;;;;7.63;1.85;;;21.10;45.90;;;;;;5383808;26;19996;-74
2024/04/17 11:23:07;;;;;;;6.82;2.63;;;21.10;45.70;;;;;;5386352;26;20454;-73
2024/04/17 11:25:36;;;;;;;9.10;2.55;;;21.10;46.40;;;;;;5418299;26;20007;-71
2024/04/17 11:28:01;;;;;;;8.23;2.17;;;20.90;47.40;;;;;;5418271;26;20043;-74
2024/04/17 11:30:27;;;;;;;10.02;2.58;;;21.00;48.60;;;;;;5463886;26;19990;-75
2024/04/17 11:32:53;;;;;;;9.30;2.33;;;21.00;48.10;;;;;;5490381;26;19994;-72
2024/04/17 11:35:19;;;;;;;7.43;2.28;;;20.90;48.10;;;;;;5490279;26;19994;-71
2024/04/17 11:37:51;;;;;;;11.48;2.33;;;20.90;48.30;;;;;;5489865;26;20004;-73
2024/04/17 11:40:17;;;;;;;10.05;2.50;;;20.90;48.80;;;;;;5489908;26;20449;-72
2024/04/17 11:42:43;;;;;;;8.27;2.30;;;20.60;48.50;;;;;;5490666;26;19994;-71
2024/04/17 11:45:12;;;;;;;8.85;2.40;;;20.30;48.40;;;;;;5490344;26;20005;-72
2024/04/17 11:47:37;;;;;;;9.77;2.55;;;20.20;48.70;;;;;;5490483;26;19998;-72
2024/04/17 11:50:05;;;;;;;7.93;2.42;;;20.10;48.50;;;;;;5457919;26;20322;-72
2024/04/17 11:52:32;;;;;;;8.73;2.13;;;20.20;48.80;;;;;;5490432;26;20068;-71
2024/04/17 11:54:58;;;;;;;13.45;2.65;;;20.20;48.10;;;;;;5490750;26;19997;-72
2024/04/17 11:57:24;;;;;;;7.80;2.15;;;20.30;48.20;;;;;;5489792;26;20071;-72
2024/04/17 11:59:50;;;;;;;8.13;2.33;;;20.50;47.80;;;;;;5464025;26;20006;-72
2024/04/17 12:02:15;;;;;;;11.70;2.70;;;20.50;47.80;;;;;;5453544;26;19999;-74
2024/04/17 12:04:42;;;;;;;14.43;2.80;;;20.70;48.10;;;;;;5453698;26;19998;-72
2024/04/17 12:07:09;;;;;;;13.10;3.03;;;21.00;48.30;;;;;;5453010;26;20063;-73
2024/04/17 12:09:34;;;;;;;13.40;2.83;;;21.10;48.80;;;;;;5446783;26;20001;-73
2024/04/17 12:12:01;;;;;;;12.18;3.08;;;21.20;49.10;;;;;;5452805;26;20003;-73
2024/04/17 12:14:26;;;;;;;13.15;2.88;;;21.20;49.50;;;;;;5447936;26;20674;-73
2024/04/17 12:16:52;;;;;;;14.50;2.40;;;21.40;50.20;;;;;;5453845;26;20002;-73
2024/04/17 12:19:18;;;;;;;13.88;2.90;;;21.50;50.10;;;;;;5452947;26;20403;-72
2024/04/17 12:21:44;;;;;;;9.45;2.28;;;21.80;50.10;;;;;;5452235;26;20414;-74
2024/04/17 12:24:17;;;;;;;12.32;2.88;;;21.90;49.60;;;;;;5451987;26;20466;-73
2024/04/17 12:26:49;;;;;;;15.35;2.78;;;22.10;49.40;;;;;;5452445;26;20003;-71
2024/04/17 12:29:15;;;;;;;11.20;2.40;;;22.10;48.90;;;;;;5407807;26;20035;-71
2024/04/17 12:31:41;;;;;;;8.88;2.28;;;22.20;48.90;;;;;;5452133;26;20035;-73
2024/04/17 12:34:07;;;;;;;10.27;2.22;;;22.30;49.20;;;;;;5451863;26;20015;-72